Time;durP1;ratioP1;P1;durP2;ratioP2;P2;SDS_P1;SDS_P2;PMS_P1;PMS_P2;Temp;Humidity;BMP_temperature;BMP_pressure;BME280_temperature;BME280_humidity;BME280_pressure;Samples;Min_cycle;Max_cycle;Signal;HPM_P1;HPM_P2
2021/01/04 00:02:20;;;;;;;1999.90;999.90;;;;;;;;;;5024544;28;20030;-80
2021/01/04 00:04:58;;;;;;;1999.90;999.90;;;;;;;;;;5023209;28;20036;-80
2021/01/04 00:07:42;;;;;;;1999.90;999.90;;;;;;;;;;5023657;28;20441;-80
2021/01/04 00:10:07;;;;;;;1999.90;999.90;;;;;;;;;;5021988;28;20092;-80
2021/01/04 00:12:39;;;;;;;1999.90;999.90;;;;;;;;;;5019787;28;20468;-80
2021/01/04 00:15:10;;;;;;;1999.90;999.90;;;;;;;;;;5018135;28;20030;-80
2021/01/04 00:17:47;;;;;;;1999.90;999.90;;;;;;;;;;5016643;28;20042;-80
2021/01/04 00:20:21;;;;;;;1999.90;999.90;;;;;;;;;;5019999;28;20041;-80
2021/01/04 00:22:47;;;;;;;1999.90;999.90;;;;;;;;;;5017858;28;20425;-80
2021/01/04 00:25:15;;;;;;;1999.90;999.90;;;;;;;;;;5019771;28;20033;-80
2021/01/04 00:27:47;;;;;;;1999.90;999.90;;;;;;;;;;5017835;28;20025;-80
2021/01/04 00:30:13;;;;;;;1999.90;999.90;;;;;;;;;;5015774;28;20022;-80
2021/01/04 00:32:39;;;;;;;1999.90;999.90;;;;;;;;;;5021810;28;20398;-80
2021/01/04 00:35:12;;;;;;;1999.90;999.90;;;;;;;;;;5016437;28;20105;-80
2021/01/04 00:37:53;;;;;;;1999.90;999.90;;;;;;;;;;5018565;28;20033;-80
2021/01/04 00:40:37;;;;;;;1999.90;999.90;;;;;;;;;;5017176;28;20045;-80
2021/01/04 00:43:04;;;;;;;1999.90;999.90;;;;;;;;;;5017722;28;20076;-80
2021/01/04 00:45:39;;;;;;;1999.90;999.90;;;;;;;;;;5022387;28;20347;-81
2021/01/04 00:48:13;;;;;;;1999.90;999.90;;;;;;;;;;5015625;28;20544;-80
2021/01/04 00:50:57;;;;;;;1999.90;999.90;;;;;;;;;;5013303;28;20084;-80
2021/01/04 00:53:31;;;;;;;1999.90;999.90;;;;;;;;;;5016351;28;20022;-80
2021/01/04 00:56:15;;;;;;;1999.90;999.90;;;;;;;;;;5015734;28;20110;-80
2021/01/04 00:58:52;;;;;;;1999.90;999.90;;;;;;;;;;5017052;28;20103;-80
2021/01/04 01:01:29;;;;;;;1999.90;999.90;;;;;;;;;;5017812;28;20026;-80
2021/01/04 01:04:01;;;;;;;1999.90;999.90;;;;;;;;;;5016500;28;20092;-80
2021/01/04 01:06:53;;;;;;;1999.90;999.90;;;;;;;;;;5016526;28;20401;-80
2021/01/04 01:09:19;;;;;;;1999.90;999.90;;;;;;;;;;5019192;28;20544;-80
2021/01/04 01:12:06;;;;;;;1999.90;999.90;;;;;;;;;;5014734;28;20037;-80
2021/01/04 01:14:32;;;;;;;1999.90;999.90;;;;;;;;;;5016252;28;20030;-81
2021/01/04 01:17:04;;;;;;;1999.90;999.90;;;;;;;;;;5013025;28;20091;-80
2021/01/04 01:19:40;;;;;;;1999.90;999.90;;;;;;;;;;5019694;28;20069;-81
2021/01/04 01:22:06;;;;;;;1999.90;999.90;;;;;;;;;;5022374;28;20034;-81
2021/01/04 01:24:32;;;;;;;1999.90;999.90;;;;;;;;;;5014177;28;20025;-81
2021/01/04 01:27:13;;;;;;;1999.90;999.90;;;;;;;;;;5014950;28;20398;-80
2021/01/04 01:29:50;;;;;;;1999.90;999.90;;;;;;;;;;5016856;28;20044;-80
2021/01/04 01:32:35;;;;;;;1999.90;999.90;;;;;;;;;;5026024;28;20130;-80
2021/01/04 01:35:13;;;;;;;1999.90;999.90;;;;;;;;;;5014621;28;20034;-80
2021/01/04 01:37:39;;;;;;;1999.90;999.90;;;;;;;;;;5011463;28;20207;-80
2021/01/04 01:40:07;;;;;;;1999.90;999.90;;;;;;;;;;5012430;28;20132;-81
2021/01/04 01:42:51;;;;;;;1999.90;999.90;;;;;;;;;;5015955;28;20137;-80
2021/01/04 01:45:22;;;;;;;1999.90;999.90;;;;;;;;;;5016014;28;20029;-80
2021/01/04 01:47:47;;;;;;;1999.90;999.90;;;;;;;;;;5017081;28;20034;-80
2021/01/04 01:50:26;;;;;;;1999.90;999.90;;;;;;;;;;5014410;28;20084;-80
2021/01/04 01:53:01;;;;;;;1999.90;999.90;;;;;;;;;;5016987;28;20394;-80
2021/01/04 01:55:35;;;;;;;1999.90;999.90;;;;;;;;;;5015690;28;20026;-80
2021/01/04 01:58:21;;;;;;;1999.90;999.90;;;;;;;;;;5018936;28;20040;-80
2021/01/04 02:00:52;;;;;;;1999.90;999.90;;;;;;;;;;5025380;28;20136;-79
2021/01/04 02:03:35;;;;;;;1999.90;999.90;;;;;;;;;;5018653;28;20486;-80
2021/01/04 02:06:19;;;;;;;1999.90;999.90;;;;;;;;;;5024096;28;20036;-80
2021/01/04 02:08:47;;;;;;;1999.90;999.90;;;;;;;;;;5018987;28;20026;-80
2021/01/04 02:11:35;;;;;;;1999.90;999.90;;;;;;;;;;5018342;28;20112;-80
2021/01/04 02:14:03;;;;;;;1999.90;999.90;;;;;;;;;;5019398;28;20022;-79
2021/01/04 02:16:33;;;;;;;1999.90;999.90;;;;;;;;;;5018761;28;20033;-80
2021/01/04 02:19:25;;;;;;;1999.90;999.90;;;;;;;;;;5024309;28;20134;-79
2021/01/04 02:22:01;;;;;;;1999.90;999.90;;;;;;;;;;5016703;28;20502;-79
2021/01/04 02:24:27;;;;;;;1999.90;999.90;;;;;;;;;;5019824;28;20097;-79
2021/01/04 02:26:53;;;;;;;1999.90;999.90;;;;;;;;;;5018660;28;20160;-79
2021/01/04 02:29:19;;;;;;;1999.90;999.90;;;;;;;;;;5017803;28;20067;-80
2021/01/04 02:31:47;;;;;;;1999.90;999.90;;;;;;;;;;5030088;28;20021;-79
2021/01/04 02:34:13;;;;;;;1999.90;999.90;;;;;;;;;;5025961;28;20029;-79
2021/01/04 02:36:41;;;;;;;1999.90;999.90;;;;;;;;;;5023321;28;20022;-80
2021/01/04 02:39:10;;;;;;;1999.90;999.90;;;;;;;;;;5022234;28;20049;-79
2021/01/04 02:41:40;;;;;;;1999.90;999.90;;;;;;;;;;5020344;28;20013;-79
2021/01/04 02:44:05;;;;;;;1999.90;999.90;;;;;;;;;;5018374;28;20037;-79
2021/01/04 02:46:31;;;;;;;1999.90;999.90;;;;;;;;;;5026291;28;20032;-79
2021/01/04 02:49:05;;;;;;;1999.90;999.90;;;;;;;;;;5017070;28;20061;-79
2021/01/04 02:51:33;;;;;;;1999.90;999.90;;;;;;;;;;5015886;28;20026;-79
2021/01/04 02:54:02;;;;;;;1999.90;999.90;;;;;;;;;;5022167;28;20025;-79
2021/01/04 02:56:30;;;;;;;1999.90;999.90;;;;;;;;;;5022271;28;20065;-79
2021/01/04 02:59:11;;;;;;;1999.90;999.90;;;;;;;;;;5024440;28;20026;-79
2021/01/04 03:01:36;;;;;;;1999.90;999.90;;;;;;;;;;5024071;28;20037;-79
2021/01/04 03:04:02;;;;;;;1999.90;999.90;;;;;;;;;;5023444;28;20023;-79
2021/01/04 03:06:41;;;;;;;1999.90;999.90;;;;;;;;;;5029126;28;20037;-79
2021/01/04 03:09:10;;;;;;;1999.90;999.90;;;;;;;;;;5025808;28;20482;-80
2021/01/04 03:11:36;;;;;;;1999.90;999.90;;;;;;;;;;5024395;28;20434;-79
2021/01/04 03:14:09;;;;;;;1999.90;999.90;;;;;;;;;;5014858;28;20034;-79
2021/01/04 03:16:54;;;;;;;1999.90;999.90;;;;;;;;;;5021007;28;20025;-79
2021/01/04 03:19:21;;;;;;;1999.90;999.90;;;;;;;;;;5021083;28;20033;-79
2021/01/04 03:21:56;;;;;;;1999.90;999.90;;;;;;;;;;5028587;28;20010;-79
2021/01/04 03:24:21;;;;;;;1999.90;999.90;;;;;;;;;;5015371;28;20045;-79
2021/01/04 03:26:50;;;;;;;1999.90;999.90;;;;;;;;;;5027220;28;20251;-79
2021/01/04 03:29:15;;;;;;;1999.90;999.90;;;;;;;;;;5023345;28;20101;-79
2021/01/04 03:31:41;;;;;;;1999.90;999.90;;;;;;;;;;5019353;28;20057;-79
2021/01/04 03:34:06;;;;;;;1999.90;999.90;;;;;;;;;;5024351;28;20026;-79
2021/01/04 03:36:32;;;;;;;1999.90;999.90;;;;;;;;;;5024174;28;20388;-79
2021/01/04 03:38:57;;;;;;;1999.90;999.90;;;;;;;;;;5016941;28;20133;-79
2021/01/04 03:41:22;;;;;;;1999.90;999.90;;;;;;;;;;5018673;28;20014;-79
2021/01/04 03:43:48;;;;;;;1999.90;999.90;;;;;;;;;;5018851;28;20439;-79
2021/01/04 03:46:13;;;;;;;1999.90;999.90;;;;;;;;;;5018615;28;20021;-78
2021/01/04 03:48:39;;;;;;;1999.90;999.90;;;;;;;;;;5024444;28;20053;-79
2021/01/04 03:51:04;;;;;;;1999.90;999.90;;;;;;;;;;5022631;28;20064;-79
2021/01/04 03:53:30;;;;;;;1999.90;999.90;;;;;;;;;;5026358;28;20021;-79
2021/01/04 03:55:55;;;;;;;1999.90;999.90;;;;;;;;;;5021105;28;20025;-78
2021/01/04 03:58:20;;;;;;;1999.90;999.90;;;;;;;;;;5020878;28;20029;-79
2021/01/04 04:00:46;;;;;;;1999.90;999.90;;;;;;;;;;5021983;28;20393;-78
2021/01/04 04:03:11;;;;;;;1999.90;999.90;;;;;;;;;;5017510;28;20075;-79
2021/01/04 04:05:37;;;;;;;1999.90;999.90;;;;;;;;;;5018077;28;20029;-78
2021/01/04 04:08:03;;;;;;;1999.90;999.90;;;;;;;;;;5021302;28;20409;-79
2021/01/04 04:10:28;;;;;;;1999.90;999.90;;;;;;;;;;5014803;28;20096;-78
2021/01/04 04:12:53;;;;;;;1999.90;999.90;;;;;;;;;;5017754;28;20474;-78
2021/01/04 04:15:19;;;;;;;1999.90;999.90;;;;;;;;;;5024397;28;20624;-79
2021/01/04 04:17:45;;;;;;;1999.90;999.90;;;;;;;;;;5016835;28;20076;-78
2021/01/04 04:20:13;;;;;;;1999.90;999.90;;;;;;;;;;5016417;28;20421;-79
2021/01/04 04:22:38;;;;;;;1999.90;999.90;;;;;;;;;;5018183;28;20064;-79
2021/01/04 04:25:05;;;;;;;1999.90;999.90;;;;;;;;;;5016997;28;20030;-79
2021/01/04 04:27:31;;;;;;;1999.90;999.90;;;;;;;;;;5013351;28;20478;-79
2021/01/04 04:29:57;;;;;;;1999.90;999.90;;;;;;;;;;5019312;28;20075;-79
2021/01/04 04:32:23;;;;;;;1999.90;999.90;;;;;;;;;;5016368;28;20025;-79
2021/01/04 04:34:48;;;;;;;1999.90;999.90;;;;;;;;;;5018721;28;20569;-79
2021/01/04 04:37:14;;;;;;;1999.90;999.90;;;;;;;;;;5016445;28;20128;-79
2021/01/04 04:39:40;;;;;;;1999.90;999.90;;;;;;;;;;5018787;28;20030;-78
2021/01/04 04:42:08;;;;;;;1999.90;999.90;;;;;;;;;;5018523;28;20124;-79
2021/01/04 04:44:36;;;;;;;1999.90;999.90;;;;;;;;;;5016250;28;20025;-78
2021/01/04 04:47:20;;;;;;;1999.90;999.90;;;;;;;;;;5017768;28;20478;-78
2021/01/04 04:49:59;;;;;;;1999.90;999.90;;;;;;;;;;5018378;28;20049;-80
2021/01/04 04:52:43;;;;;;;1999.90;999.90;;;;;;;;;;5015991;28;20056;-79
2021/01/04 04:55:08;;;;;;;1999.90;999.90;;;;;;;;;;5018561;28;20065;-79
2021/01/04 04:57:36;;;;;;;1999.90;999.90;;;;;;;;;;5017763;28;20041;-79
2021/01/04 05:00:08;;;;;;;1999.90;999.90;;;;;;;;;;5019964;28;20052;-79
2021/01/04 05:02:40;;;;;;;1999.90;999.90;;;;;;;;;;5016098;28;20033;-79
2021/01/04 05:05:14;;;;;;;1999.90;999.90;;;;;;;;;;5017863;28;20034;-78
2021/01/04 05:07:44;;;;;;;1999.90;999.90;;;;;;;;;;5015645;28;20084;-79
2021/01/04 05:10:12;;;;;;;1999.90;999.90;;;;;;;;;;5022368;28;20463;-79
2021/01/04 05:12:44;;;;;;;1999.90;999.90;;;;;;;;;;5023620;28;20025;-79
2021/01/04 05:15:29;;;;;;;1999.90;999.90;;;;;;;;;;5032855;28;20030;-79
2021/01/04 05:18:14;;;;;;;1999.90;999.90;;;;;;;;;;5016542;28;20111;-79
2021/01/04 05:20:59;;;;;;;1999.90;999.90;;;;;;;;;;5015825;28;20033;-79
2021/01/04 05:23:28;;;;;;;1999.90;999.90;;;;;;;;;;5015340;28;20026;-79
2021/01/04 05:26:00;;;;;;;1999.90;999.90;;;;;;;;;;5014699;28;20030;-79
2021/01/04 05:28:25;;;;;;;1999.90;999.90;;;;;;;;;;5018526;28;20115;-79
2021/01/04 05:30:56;;;;;;;1999.90;999.90;;;;;;;;;;5021783;28;20152;-79
2021/01/04 05:33:42;;;;;;;1999.90;999.90;;;;;;;;;;5022086;28;20034;-79
2021/01/04 05:36:19;;;;;;;1999.90;999.90;;;;;;;;;;5020253;28;20034;-79
2021/01/04 05:38:59;;;;;;;1999.90;999.90;;;;;;;;;;5021719;28;20478;-79
2021/01/04 05:41:24;;;;;;;1999.90;999.90;;;;;;;;;;5024804;28;20041;-79
2021/01/04 05:44:02;;;;;;;1999.90;999.90;;;;;;;;;;5022693;28;20026;-79
2021/01/04 05:47:06;;;;;;;1999.90;999.90;;;;;;;;;;5023343;28;20041;-79
2021/01/04 05:49:35;;;;;;;1999.90;999.90;;;;;;;;;;5027103;28;20052;-79
2021/01/04 05:52:00;;;;;;;1999.90;999.90;;;;;;;;;;5030264;28;20464;-79
2021/01/04 05:54:33;;;;;;;1999.90;999.90;;;;;;;;;;5026578;28;20132;-80
2021/01/04 05:57:06;;;;;;;1999.90;999.90;;;;;;;;;;5018947;28;20033;-80
2021/01/04 05:59:32;;;;;;;1999.90;999.90;;;;;;;;;;5022448;28;20069;-80
2021/01/04 06:02:03;;;;;;;1999.90;999.90;;;;;;;;;;5022533;28;20091;-80
2021/01/04 06:04:28;;;;;;;1999.90;999.90;;;;;;;;;;5020550;28;20029;-78
2021/01/04 06:06:55;;;;;;;1999.90;999.90;;;;;;;;;;5023560;28;20469;-79
2021/01/04 06:09:21;;;;;;;1999.90;999.90;;;;;;;;;;5024507;28;20091;-80
2021/01/04 06:11:56;;;;;;;1999.90;999.90;;;;;;;;;;5019257;28;20440;-79
2021/01/04 06:14:29;;;;;;;1999.90;999.90;;;;;;;;;;5025367;28;20576;-79
2021/01/04 06:17:03;;;;;;;1999.90;999.90;;;;;;;;;;5020687;28;20018;-79
2021/01/04 06:19:30;;;;;;;1999.90;999.90;;;;;;;;;;5024914;28;20049;-80
2021/01/04 06:21:57;;;;;;;1999.90;999.90;;;;;;;;;;5018557;28;20018;-79
2021/01/04 06:24:22;;;;;;;1999.90;999.90;;;;;;;;;;5025015;28;20766;-79
2021/01/04 06:26:48;;;;;;;1999.90;999.90;;;;;;;;;;5023228;28;20060;-79
2021/01/04 06:29:14;;;;;;;1999.90;999.90;;;;;;;;;;5019744;28;20054;-79
2021/01/04 06:31:50;;;;;;;1999.90;999.90;;;;;;;;;;5021706;28;20061;-80
2021/01/04 06:34:19;;;;;;;1999.90;999.90;;;;;;;;;;5020294;28;20018;-79
2021/01/04 06:36:47;;;;;;;1999.90;999.90;;;;;;;;;;5016839;28;20080;-79
2021/01/04 06:39:16;;;;;;;1999.90;999.90;;;;;;;;;;5018487;28;20057;-80
2021/01/04 06:41:42;;;;;;;1999.90;999.90;;;;;;;;;;5021487;28;20026;-80
2021/01/04 06:44:09;;;;;;;1999.90;999.90;;;;;;;;;;5016414;28;20033;-80
2021/01/04 06:46:50;;;;;;;1999.90;999.90;;;;;;;;;;5026408;28;20775;-79
2021/01/04 06:49:21;;;;;;;1999.90;999.90;;;;;;;;;;5025931;28;20116;-80
2021/01/04 06:51:59;;;;;;;1999.90;999.90;;;;;;;;;;5026431;28;20026;-79
2021/01/04 06:54:43;;;;;;;1999.90;999.90;;;;;;;;;;5020618;28;20041;-79
2021/01/04 06:57:08;;;;;;;1999.90;999.90;;;;;;;;;;5025479;28;20047;-78
2021/01/04 06:59:34;;;;;;;1999.90;999.90;;;;;;;;;;5015569;28;20110;-79
2021/01/04 07:02:18;;;;;;;1999.90;999.90;;;;;;;;;;5021613;28;20129;-79
2021/01/04 07:04:43;;;;;;;1999.90;999.90;;;;;;;;;;5018043;28;20485;-77
2021/01/04 07:07:11;;;;;;;1999.90;999.90;;;;;;;;;;5018006;28;20510;-79
2021/01/04 07:09:43;;;;;;;1999.90;999.90;;;;;;;;;;5019051;28;20045;-80
2021/01/04 07:12:14;;;;;;;1999.90;999.90;;;;;;;;;;5020175;28;20034;-80
2021/01/04 07:14:58;;;;;;;1999.90;999.90;;;;;;;;;;5015420;28;20029;-80
2021/01/04 07:17:24;;;;;;;1999.90;999.90;;;;;;;;;;5023822;28;20034;-80
2021/01/04 07:19:59;;;;;;;1999.90;999.90;;;;;;;;;;5026219;28;20049;-81
2021/01/04 07:22:33;;;;;;;1999.90;999.90;;;;;;;;;;5021294;28;20029;-80
2021/01/04 07:24:58;;;;;;;1999.90;999.90;;;;;;;;;;5019458;28;20397;-81
2021/01/04 07:27:27;;;;;;;1999.90;999.90;;;;;;;;;;5019435;28;20036;-80
2021/01/04 07:30:03;;;;;;;1999.90;999.90;;;;;;;;;;5021907;28;20040;-81
2021/01/04 07:32:47;;;;;;;1999.90;999.90;;;;;;;;;;5020651;28;20073;-81
2021/01/04 07:35:15;;;;;;;1999.90;999.90;;;;;;;;;;5021885;28;20770;-80
2021/01/04 07:37:41;;;;;;;1999.90;999.90;;;;;;;;;;5025827;28;20142;-80
2021/01/04 07:40:30;;;;;;;1999.90;999.90;;;;;;;;;;5012961;28;20038;-80
2021/01/04 07:43:25;;;;;;;1999.90;999.90;;;;;;;;;;5018719;28;20045;-80
2021/01/04 07:45:59;;;;;;;1999.90;999.90;;;;;;;;;;5029028;28;20048;-80
2021/01/04 07:48:34;;;;;;;1999.90;999.90;;;;;;;;;;5026608;28;20056;-79
2021/01/04 07:51:15;;;;;;;1999.90;999.90;;;;;;;;;;5013871;28;20104;-79
2021/01/04 07:53:50;;;;;;;1999.90;999.90;;;;;;;;;;5019048;28;20539;-79
2021/01/04 07:56:18;;;;;;;1999.90;999.90;;;;;;;;;;5024470;28;20474;-79
2021/01/04 07:58:55;;;;;;;1999.90;999.90;;;;;;;;;;5028778;28;20384;-79
2021/01/04 08:01:47;;;;;;;1999.90;999.90;;;;;;;;;;5019912;28;20065;-80
2021/01/04 08:04:13;;;;;;;1999.90;999.90;;;;;;;;;;5019177;28;20087;-79
2021/01/04 08:06:44;;;;;;;1999.90;999.90;;;;;;;;;;5017381;28;20018;-79
2021/01/04 08:09:24;;;;;;;1999.90;999.90;;;;;;;;;;5022626;28;20428;-80
2021/01/04 08:11:56;;;;;;;1999.90;999.90;;;;;;;;;;5017784;28;20056;-79
2021/01/04 08:14:30;;;;;;;1999.90;999.90;;;;;;;;;;5016432;28;20095;-80
2021/01/04 08:17:05;;;;;;;1999.90;999.90;;;;;;;;;;5019185;28;20112;-80
2021/01/04 08:19:32;;;;;;;1999.90;999.90;;;;;;;;;;5020148;28;20151;-80
2021/01/04 08:22:04;;;;;;;1999.90;999.90;;;;;;;;;;5015876;28;20026;-80
2021/01/04 08:24:35;;;;;;;1999.90;999.90;;;;;;;;;;5016426;28;20525;-79
2021/01/04 08:27:07;;;;;;;1999.90;999.90;;;;;;;;;;5016163;28;20033;-79
2021/01/04 08:29:32;;;;;;;1999.90;999.90;;;;;;;;;;5018578;28;20037;-80
2021/01/04 08:32:02;;;;;;;1999.90;999.90;;;;;;;;;;5016937;28;20034;-79
2021/01/04 08:34:36;;;;;;;1999.90;999.90;;;;;;;;;;5016245;28;20034;-80
2021/01/04 08:37:02;;;;;;;1999.90;999.90;;;;;;;;;;5017427;28;20034;-79
2021/01/04 08:39:31;;;;;;;1999.90;999.90;;;;;;;;;;5023488;28;20036;-79
2021/01/04 08:42:06;;;;;;;1999.90;999.90;;;;;;;;;;5017642;28;20029;-79
2021/01/04 08:44:32;;;;;;;1999.90;999.90;;;;;;;;;;5017486;28;20024;-79
2021/01/04 08:47:30;;;;;;;1999.90;999.90;;;;;;;;;;5013934;28;20058;-80
2021/01/04 08:50:05;;;;;;;1999.90;999.90;;;;;;;;;;5010884;28;20053;-80
2021/01/04 08:52:37;;;;;;;1999.90;999.90;;;;;;;;;;5019211;28;20488;-80
2021/01/04 08:55:03;;;;;;;1999.90;999.90;;;;;;;;;;5017796;28;20385;-80
2021/01/04 08:57:44;;;;;;;1999.90;999.90;;;;;;;;;;5001470;28;20022;-80
2021/01/04 09:00:16;;;;;;;1999.90;999.90;;;;;;;;;;5017966;28;20041;-80
2021/01/04 09:02:42;;;;;;;1999.90;999.90;;;;;;;;;;5016293;28;20761;-80
2021/01/04 09:05:13;;;;;;;1999.90;999.90;;;;;;;;;;5018673;28;20116;-80
2021/01/04 09:07:52;;;;;;;1999.90;999.90;;;;;;;;;;5021407;28;20068;-80
2021/01/04 09:10:26;;;;;;;1999.90;999.90;;;;;;;;;;5024487;28;20486;-80
2021/01/04 09:12:53;;;;;;;1999.90;999.90;;;;;;;;;;5021664;28;20064;-76
2021/01/04 09:15:19;;;;;;;1999.90;999.90;;;;;;;;;;5020666;28;20885;-79
2021/01/04 09:17:46;;;;;;;1999.90;999.90;;;;;;;;;;5021458;28;20076;-77
2021/01/04 09:20:29;;;;;;;1999.90;999.90;;;;;;;;;;5018518;28;20091;-78
2021/01/04 09:23:22;;;;;;;1999.90;999.90;;;;;;;;;;5019475;28;20073;-77
2021/01/04 09:25:49;;;;;;;1999.90;999.90;;;;;;;;;;5023359;28;20488;-76
2021/01/04 09:28:16;;;;;;;1999.90;999.90;;;;;;;;;;5021098;28;20101;-76
2021/01/04 09:30:42;;;;;;;1999.90;999.90;;;;;;;;;;5022826;28;20211;-77
2021/01/04 09:33:09;;;;;;;1999.90;999.90;;;;;;;;;;5022134;28;20025;-76
2021/01/04 09:35:35;;;;;;;1999.90;999.90;;;;;;;;;;5030317;28;20053;-76
2021/01/04 09:38:05;;;;;;;1999.90;999.90;;;;;;;;;;5028347;28;20047;-78
2021/01/04 09:40:30;;;;;;;1999.90;999.90;;;;;;;;;;5024639;28;20139;-79
2021/01/04 09:43:09;;;;;;;1999.90;999.90;;;;;;;;;;5023484;28;20029;-79
2021/01/04 09:45:36;;;;;;;1999.90;999.90;;;;;;;;;;5021348;28;20030;-78
2021/01/04 09:48:03;;;;;;;1999.90;999.90;;;;;;;;;;5015783;28;20497;-78
2021/01/04 09:50:37;;;;;;;1999.90;999.90;;;;;;;;;;5019820;28;20493;-79
2021/01/04 09:53:06;;;;;;;1999.90;999.90;;;;;;;;;;5029246;28;20508;-79
2021/01/04 09:55:33;;;;;;;1999.90;999.90;;;;;;;;;;5031527;28;20021;-80
2021/01/04 09:58:00;;;;;;;1999.90;999.90;;;;;;;;;;5023577;28;20030;-79
2021/01/04 10:00:27;;;;;;;1999.90;999.90;;;;;;;;;;5021994;28;20037;-79
2021/01/04 10:03:10;;;;;;;1999.90;999.90;;;;;;;;;;5021202;28;20033;-79
2021/01/04 10:05:38;;;;;;;1999.90;999.90;;;;;;;;;;5016520;28;20055;-79
2021/01/04 10:08:05;;;;;;;1999.90;999.90;;;;;;;;;;5021984;28;20026;-79
2021/01/04 10:10:31;;;;;;;1999.90;999.90;;;;;;;;;;5017154;28;20040;-78
2021/01/04 10:13:06;;;;;;;1999.90;999.90;;;;;;;;;;5019447;28;20428;-79
2021/01/04 10:15:32;;;;;;;1999.90;999.90;;;;;;;;;;5017496;28;20018;-78
2021/01/04 10:18:08;;;;;;;1999.90;999.90;;;;;;;;;;5015923;28;20030;-79
2021/01/04 10:20:36;;;;;;;1999.90;999.90;;;;;;;;;;5019249;28;20095;-79
2021/01/04 10:23:01;;;;;;;1999.90;999.90;;;;;;;;;;5017458;28;20028;-79
2021/01/04 10:25:34;;;;;;;1999.90;999.90;;;;;;;;;;5021768;28;20025;-78
2021/01/04 10:28:00;;;;;;;1999.90;999.90;;;;;;;;;;5021823;28;20030;-79
2021/01/04 10:30:26;;;;;;;1999.90;999.90;;;;;;;;;;5018152;28;20500;-77
2021/01/04 10:33:03;;;;;;;1999.90;999.90;;;;;;;;;;5016564;28;20477;-79
2021/01/04 10:35:28;;;;;;;1999.90;999.90;;;;;;;;;;5015388;28;20041;-78
2021/01/04 10:38:00;;;;;;;1999.90;999.90;;;;;;;;;;5012538;28;20482;-79
2021/01/04 10:40:26;;;;;;;1999.90;999.90;;;;;;;;;;5018795;28;20053;-78
2021/01/04 10:43:02;;;;;;;1999.90;999.90;;;;;;;;;;5020809;28;20414;-77
2021/01/04 10:45:34;;;;;;;1999.90;999.90;;;;;;;;;;5021566;28;20034;-75
2021/01/04 10:48:19;;;;;;;1999.90;999.90;;;;;;;;;;5015690;28;20026;-76
2021/01/04 10:50:46;;;;;;;1999.90;999.90;;;;;;;;;;5021470;28;20119;-77
2021/01/04 10:53:30;;;;;;;1999.90;999.90;;;;;;;;;;5019969;28;20532;-79
2021/01/04 10:56:04;;;;;;;1999.90;999.90;;;;;;;;;;5020599;28;20528;-76
2021/01/04 10:58:35;;;;;;;1999.90;999.90;;;;;;;;;;5015855;28;20469;-77
2021/01/04 11:01:05;;;;;;;1999.90;999.90;;;;;;;;;;5020546;28;20053;-80
2021/01/04 11:03:30;;;;;;;1999.90;999.90;;;;;;;;;;5021106;28;20069;-79
2021/01/04 11:05:55;;;;;;;1999.90;999.90;;;;;;;;;;5019926;28;20061;-79
2021/01/04 11:08:24;;;;;;;1999.90;999.90;;;;;;;;;;5015675;28;20112;-81
2021/01/04 11:11:10;;;;;;;1999.90;999.90;;;;;;;;;;5020221;28;20118;-80
2021/01/04 11:13:35;;;;;;;1999.90;999.90;;;;;;;;;;5022898;28;20049;-80
2021/01/04 11:16:05;;;;;;;1999.90;999.90;;;;;;;;;;5015416;28;20030;-81
2021/01/04 11:18:31;;;;;;;1999.90;999.90;;;;;;;;;;5025063;28;20191;-82
2021/01/04 11:20:57;;;;;;;1999.90;999.90;;;;;;;;;;5017302;28;20116;-84
2021/01/04 11:23:22;;;;;;;1999.90;999.90;;;;;;;;;;5021196;28;20600;-83
2021/01/04 11:25:48;;;;;;;1999.90;999.90;;;;;;;;;;5002734;28;20432;-73
2021/01/04 11:28:14;;;;;;;1999.90;999.90;;;;;;;;;;5017151;28;20030;-78
2021/01/04 11:30:39;;;;;;;1999.90;999.90;;;;;;;;;;5021163;28;20014;-80
2021/01/04 11:33:05;;;;;;;1999.90;999.90;;;;;;;;;;5016678;28;20763;-78
2021/01/04 11:35:30;;;;;;;1999.90;999.90;;;;;;;;;;5026424;28;20068;-78
2021/01/04 11:37:56;;;;;;;1999.90;999.90;;;;;;;;;;5022703;28;20108;-79
2021/01/04 11:40:22;;;;;;;1999.90;999.90;;;;;;;;;;5021134;28;20083;-78
2021/01/04 11:42:47;;;;;;;1999.90;999.90;;;;;;;;;;5017912;28;20407;-78
2021/01/04 11:45:17;;;;;;;1999.90;999.90;;;;;;;;;;5019286;28;20516;-79
2021/01/04 11:47:43;;;;;;;1999.90;999.90;;;;;;;;;;5020483;28;20037;-78
2021/01/04 11:50:09;;;;;;;1999.90;999.90;;;;;;;;;;5022715;28;20050;-78
2021/01/04 11:52:38;;;;;;;1999.90;999.90;;;;;;;;;;5016898;28;20060;-78
2021/01/04 11:55:05;;;;;;;1999.90;999.90;;;;;;;;;;5022904;28;20394;-78
2021/01/04 11:57:30;;;;;;;1999.90;999.90;;;;;;;;;;5026781;28;20135;-78
2021/01/04 11:59:56;;;;;;;1999.90;999.90;;;;;;;;;;5021790;28;20034;-78
2021/01/04 12:02:21;;;;;;;1999.90;999.90;;;;;;;;;;5018295;28;20026;-78
2021/01/04 12:04:46;;;;;;;1999.90;999.90;;;;;;;;;;5027121;28;20063;-78
2021/01/04 12:07:12;;;;;;;1999.90;999.90;;;;;;;;;;5017973;28;20033;-77
2021/01/04 12:09:38;;;;;;;1999.90;999.90;;;;;;;;;;5016595;28;20382;-77
2021/01/04 12:12:04;;;;;;;1999.90;999.90;;;;;;;;;;5019812;28;20569;-78
2021/01/04 12:14:30;;;;;;;1999.90;999.90;;;;;;;;;;5014858;28;20072;-78
2021/01/04 12:16:59;;;;;;;1999.90;999.90;;;;;;;;;;5018833;28;20022;-79
2021/01/04 12:19:25;;;;;;;1999.90;999.90;;;;;;;;;;5018225;28;20434;-79
2021/01/04 12:21:50;;;;;;;1999.90;999.90;;;;;;;;;;5020580;28;20021;-82
2021/01/04 12:24:16;;;;;;;1999.90;999.90;;;;;;;;;;5004271;28;20029;-81
2021/01/04 12:26:46;;;;;;;1999.90;999.90;;;;;;;;;;5021192;28;20492;-80
2021/01/04 12:29:11;;;;;;;1999.90;999.90;;;;;;;;;;5017611;28;20057;-81
2021/01/04 12:31:37;;;;;;;1999.90;999.90;;;;;;;;;;5020434;28;20087;-80
2021/01/04 12:34:03;;;;;;;1999.90;999.90;;;;;;;;;;5022714;28;20040;-81
2021/01/04 12:36:28;;;;;;;1999.90;999.90;;;;;;;;;;5020032;28;20098;-81
2021/01/04 12:38:54;;;;;;;1999.90;999.90;;;;;;;;;;5017348;28;20025;-82
2021/01/04 12:41:20;;;;;;;1999.90;999.90;;;;;;;;;;5020667;28;20524;-80
2021/01/04 12:43:46;;;;;;;1999.90;999.90;;;;;;;;;;5017462;28;20038;-81
2021/01/04 12:46:12;;;;;;;1999.90;999.90;;;;;;;;;;5016401;28;20026;-81
2021/01/04 12:48:38;;;;;;;1999.90;999.90;;;;;;;;;;5020294;28;20095;-81
2021/01/04 12:51:06;;;;;;;1999.90;999.90;;;;;;;;;;5024603;28;20057;-81
2021/01/04 12:53:31;;;;;;;1999.90;999.90;;;;;;;;;;5020188;28;20524;-82
2021/01/04 12:55:57;;;;;;;1999.90;999.90;;;;;;;;;;5015849;28;20034;-81
2021/01/04 12:58:22;;;;;;;1999.90;999.90;;;;;;;;;;5016283;28;20080;-81
2021/01/04 13:00:50;;;;;;;1999.90;999.90;;;;;;;;;;5015148;28;20052;-81
2021/01/04 13:03:15;;;;;;;1999.90;999.90;;;;;;;;;;5018788;28;20081;-81
2021/01/04 13:05:41;;;;;;;1999.90;999.90;;;;;;;;;;5021276;28;20425;-81
2021/01/04 13:08:06;;;;;;;1999.90;999.90;;;;;;;;;;5016666;28;20043;-81
2021/01/04 13:10:32;;;;;;;1999.90;999.90;;;;;;;;;;5018582;28;20351;-81
2021/01/04 13:12:58;;;;;;;1999.90;999.90;;;;;;;;;;5017943;28;20030;-81
2021/01/04 13:15:23;;;;;;;1999.90;999.90;;;;;;;;;;5017772;28;20072;-81
2021/01/04 13:17:48;;;;;;;1999.90;999.90;;;;;;;;;;5018752;28;20061;-81
2021/01/04 13:20:14;;;;;;;1999.90;999.90;;;;;;;;;;5015749;28;20038;-81
2021/01/04 13:22:41;;;;;;;1999.90;999.90;;;;;;;;;;5017934;28;20120;-81
2021/01/04 13:25:07;;;;;;;1999.90;999.90;;;;;;;;;;5018727;28;20458;-82
2021/01/04 13:27:33;;;;;;;1999.90;999.90;;;;;;;;;;5021979;28;20029;-81
2021/01/04 13:29:58;;;;;;;1999.90;999.90;;;;;;;;;;5019837;28;20151;-82
2021/01/04 13:32:24;;;;;;;1999.90;999.90;;;;;;;;;;5017330;28;20018;-80
2021/01/04 13:34:49;;;;;;;1999.90;999.90;;;;;;;;;;5018502;28;20032;-80
2021/01/04 13:37:15;;;;;;;1999.90;999.90;;;;;;;;;;5029150;28;20392;-79
2021/01/04 13:39:41;;;;;;;1999.90;999.90;;;;;;;;;;5024505;28;20029;-77
2021/01/04 13:42:07;;;;;;;1999.90;999.90;;;;;;;;;;5013787;28;20169;-77
2021/01/04 13:44:34;;;;;;;1999.90;999.90;;;;;;;;;;5018983;28;20108;-77
2021/01/04 13:47:00;;;;;;;1999.90;999.90;;;;;;;;;;5017690;28;20038;-77
2021/01/04 13:49:25;;;;;;;1999.90;999.90;;;;;;;;;;5023075;28;20533;-77
2021/01/04 13:51:51;;;;;;;1999.90;999.90;;;;;;;;;;5021966;28;20088;-77
2021/01/04 13:54:16;;;;;;;1999.90;999.90;;;;;;;;;;5030420;28;20492;-77
2021/01/04 13:56:45;;;;;;;1999.90;999.90;;;;;;;;;;5021862;28;20034;-76
2021/01/04 13:59:11;;;;;;;1999.90;999.90;;;;;;;;;;5027053;28;20025;-77
2021/01/04 14:01:36;;;;;;;1999.90;999.90;;;;;;;;;;5019108;28;20406;-77